Time;durP1;ratioP1;P1;durP2;ratioP2;P2;SDS_P1;SDS_P2;PMS_P1;PMS_P2;Temp;Humidity;BMP_temperature;BMP_pressure;BME280_temperature;BME280_humidity;BME280_pressure;Samples;Min_cycle;Max_cycle;Signal;HPM_P1;HPM_P2
2021/03/23 00:00:50;;;;;;;6.30;2.55;;;26.50;1792.00;;;;;;5046286;28;19905;-77
2021/03/23 00:03:23;;;;;;;6.45;2.88;;;26.50;1817.60;;;;;;5042005;28;20521;-77
2021/03/23 00:05:48;;;;;;;7.72;2.90;;;26.50;1792.00;;;;;;5023352;28;20461;-79
2021/03/23 00:08:41;;;;;;;7.82;2.88;;;26.40;1817.60;;;;;;5045488;28;20033;-87
2021/03/23 00:11:47;;;;;;;10.70;2.90;;;26.40;1843.20;;;;;;5049990;28;20377;-77
2021/03/23 00:14:14;;;;;;;8.02;2.80;;;26.40;1817.60;;;;;;4960176;28;20027;-76
2021/03/23 00:16:43;;;;;;;9.10;3.42;;;26.50;1792.00;;;;;;4961776;28;20566;-76
2021/03/23 00:19:18;;;;;;;12.05;4.15;;;26.40;1843.20;;;;;;4958112;28;20360;-76
2021/03/23 00:21:44;;;;;;;9.68;2.70;;;26.30;1868.80;;;;;;4946969;29;20058;-76
2021/03/23 00:24:10;;;;;;;;;;;26.20;1868.80;;;;;;4930237;29;20107;-80
2021/03/23 00:26:36;;;;;;;9.38;3.08;;;26.20;1868.80;;;;;;4936088;29;19957;-76
2021/03/23 00:29:02;;;;;;;;;;;26.30;1868.80;;;;;;4953217;28;20034;-77
2021/03/23 00:31:31;;;;;;;7.63;3.00;;;26.40;1868.80;;;;;;4948503;28;19895;-77
2021/03/23 00:33:58;;;;;;;12.68;3.03;;;26.30;1894.40;;;;;;4967503;28;20031;-77
2021/03/23 00:36:28;;;;;;;7.95;2.97;;;26.30;1894.40;;;;;;4951425;29;20039;-78
2021/03/23 00:38:55;;;;;;;9.95;3.40;;;26.30;1894.40;;;;;;4934812;29;20024;-76
2021/03/23 00:41:22;;;;;;;7.32;3.13;;;26.20;1920.00;;;;;;4962576;28;20414;-77
2021/03/23 00:43:48;;;;;;;6.10;2.72;;;26.50;1894.40;;;;;;4967782;28;20031;-76
2021/03/23 00:46:13;;;;;;;6.40;2.97;;;26.40;1894.40;;;;;;4936917;29;20046;-76
2021/03/23 00:48:39;;;;;;;;;;;26.40;1920.00;;;;;;4996053;28;20429;-77
2021/03/23 00:51:05;;;;;;;7.30;3.08;;;26.40;1920.00;;;;;;4994600;28;19905;-76
2021/03/23 00:53:30;;;;;;;;;;;26.30;1920.00;;;;;;5017118;28;20372;-76
2021/03/23 00:55:58;;;;;;;7.70;2.72;;;26.30;1945.60;;;;;;5014806;28;19913;-76
2021/03/23 00:58:24;;;;;;;6.18;3.03;;;26.30;1920.00;;;;;;5015147;28;20061;-77
2021/03/23 01:00:50;;;;;;;9.52;2.70;;;26.20;1945.60;;;;;;5015296;28;20433;-77
2021/03/23 01:03:15;;;;;;;;;;;26.10;1971.20;;;;;;5019589;28;20059;-81
2021/03/23 01:05:43;;;;;;;7.13;2.83;;;26.10;1971.20;;;;;;5033820;28;19909;-76
2021/03/23 01:08:08;;;;;;;7.45;3.70;;;26.10;1971.20;;;;;;5027787;28;20052;-78
2021/03/23 01:10:34;;;;;;;6.93;3.17;;;26.20;1971.20;;;;;;5043501;28;20427;-85
2021/03/23 01:13:00;;;;;;;10.18;3.40;;;26.10;1996.80;;;;;;5047532;28;20033;-78
2021/03/23 01:15:31;;;;;;;7.63;2.67;;;26.10;1996.80;;;;;;5049092;28;20095;-80
2021/03/23 01:17:57;;;;;;;12.63;2.63;;;26.10;1996.80;;;;;;5047042;28;20107;-78
2021/03/23 01:20:26;;;;;;;8.75;2.78;;;26.10;1996.80;;;;;;5064997;28;20047;-84
2021/03/23 01:22:52;;;;;;;5.80;2.97;;;26.20;1996.80;;;;;;5050828;28;20032;-78
2021/03/23 01:25:18;;;;;;;10.35;3.20;;;26.20;1996.80;;;;;;5068704;28;20025;-78
2021/03/23 01:27:48;;;;;;;9.60;3.35;;;26.10;1996.80;;;;;;5073432;28;20044;-83
2021/03/23 01:30:14;;;;;;;7.65;2.95;;;26.10;1996.80;;;;;;5052535;28;20380;-78
2021/03/23 01:32:40;;;;;;;7.35;2.22;;;26.20;1996.80;;;;;;5070017;28;20009;-77
2021/03/23 01:35:06;;;;;;;8.45;3.42;;;26.10;1996.80;;;;;;5069262;28;20029;-84
2021/03/23 01:37:32;;;;;;;8.52;2.92;;;26.00;2022.40;;;;;;5053128;28;20033;-79
2021/03/23 01:40:00;;;;;;;9.02;2.72;;;26.10;2022.40;;;;;;5070476;28;20350;-78
2021/03/23 01:42:43;;;;;;;8.95;2.67;;;26.00;2022.40;;;;;;5069703;28;20036;-78
2021/03/23 01:45:14;;;;;;;7.75;3.30;;;26.10;1996.80;;;;;;5051556;28;20033;-79
2021/03/23 01:47:40;;;;;;;10.27;3.10;;;26.10;2022.40;;;;;;5051028;28;20048;-83
2021/03/23 01:50:06;;;;;;;7.40;3.05;;;26.00;2048.00;;;;;;5053342;28;20037;-78
2021/03/23 01:52:32;;;;;;;8.68;3.08;;;25.70;2073.60;;;;;;5051605;28;20009;-81
2021/03/23 01:55:02;;;;;;;8.75;3.17;;;26.00;2048.00;;;;;;5067561;28;20036;-81
2021/03/23 01:57:30;;;;;;;7.05;2.72;;;25.90;2073.60;;;;;;5069007;28;20063;-78
2021/03/23 01:59:58;;;;;;;8.10;3.30;;;25.80;2099.20;;;;;;5051347;28;20065;-79
2021/03/23 02:02:25;;;;;;;7.97;2.67;;;25.90;2073.60;;;;;;5055799;28;20040;-82
2021/03/23 02:04:52;;;;;;;7.22;3.08;;;26.00;2073.60;;;;;;5072758;28;20039;-79
2021/03/23 02:07:17;;;;;;;;;;;26.00;2099.20;;;;;;5075399;28;20021;-78
2021/03/23 02:09:43;;;;;;;7.57;2.65;;;25.70;2073.60;;;;;;5052644;28;20287;-81
2021/03/23 02:12:16;;;;;;;;;;;25.90;2099.20;;;;;;5070010;28;20032;-83
2021/03/23 02:14:45;;;;;;;7.25;3.47;;;25.70;2124.80;;;;;;5049934;28;19908;-78
2021/03/23 02:17:21;;;;;;;7.72;2.88;;;25.80;2124.80;;;;;;5054805;28;20036;-83
2021/03/23 02:19:48;;;;;;;7.03;2.45;;;25.70;2124.80;;;;;;5071297;28;20473;-78
2021/03/23 02:22:20;;;;;;;7.80;3.53;;;25.70;2124.80;;;;;;5069130;28;20108;-85
2021/03/23 02:24:47;;;;;;;5.28;2.75;;;25.80;2124.80;;;;;;5050107;28;20036;-77
2021/03/23 02:27:13;;;;;;;11.98;3.20;;;25.80;2150.40;;;;;;5053529;28;20055;-84
2021/03/23 02:29:39;;;;;;;7.53;3.33;;;25.80;2124.80;;;;;;5063324;28;20028;-78
2021/03/23 02:32:05;;;;;;;;;;;25.70;2124.80;;;;;;5068148;28;20009;-78
2021/03/23 02:34:30;;;;;;;8.95;3.08;;;25.70;2150.40;;;;;;5066083;28;19912;-82
2021/03/23 02:36:56;;;;;;;12.32;2.58;;;25.80;2124.80;;;;;;5046382;28;20056;-84
2021/03/23 02:39:25;;;;;;;8.25;3.30;;;25.80;2124.80;;;;;;5051012;28;20029;-79
2021/03/23 02:41:52;;;;;;;9.82;3.25;;;25.70;2150.40;;;;;;5048826;28;20037;-77
2021/03/23 02:44:18;;;;;;;8.77;3.00;;;25.80;2124.80;;;;;;5047590;28;20025;-79
2021/03/23 02:46:43;;;;;;;;;;;25.60;2176.00;;;;;;5048965;28;20036;-79
2021/03/23 02:49:09;;;;;;;6.88;2.70;;;0.90;2176.00;;;;;;5061800;28;19908;-78
2021/03/23 02:51:36;;;;;;;8.75;3.10;;;25.60;2176.00;;;;;;5067127;28;20059;-84
2021/03/23 02:54:03;;;;;;;6.00;2.88;;;0.90;2176.00;;;;;;5050143;28;20009;-83
2021/03/23 02:56:28;;;;;;;12.50;3.95;;;25.60;2176.00;;;;;;5064721;28;20071;-78
2021/03/23 02:58:54;;;;;;;;;;;25.60;2176.00;;;;;;5047652;28;20041;-83
2021/03/23 03:01:20;;;;;;;5.65;2.60;;;0.90;2176.00;;;;;;5046413;28;19909;-86
2021/03/23 03:03:45;;;;;;;;;;;0.90;2176.00;;;;;;5053185;28;20066;-83
2021/03/23 03:06:12;;;;;;;8.32;3.20;;;0.90;2201.60;;;;;;5068900;28;19905;-78
2021/03/23 03:08:38;;;;;;;7.57;3.10;;;25.60;2176.00;;;;;;5065875;28;20009;-78
2021/03/23 03:11:04;;;;;;;;;;;25.60;2176.00;;;;;;5046101;28;20489;-78
2021/03/23 03:13:30;;;;;;;6.60;2.97;;;25.70;2201.60;;;;;;5047774;28;19927;-79
2021/03/23 03:15:56;;;;;;;7.03;3.47;;;25.60;2201.60;;;;;;5066147;28;20033;-86
2021/03/23 03:18:24;;;;;;;6.43;3.10;;;0.90;2201.60;;;;;;5046801;28;20060;-78
2021/03/23 03:20:51;;;;;;;9.73;3.22;;;0.90;2201.60;;;;;;5044977;28;20017;-78
2021/03/23 03:23:18;;;;;;;7.10;3.08;;;0.90;2201.60;;;;;;5047285;28;20035;-81
2021/03/23 03:25:45;;;;;;;7.45;2.90;;;0.80;2201.60;;;;;;5045643;28;20020;-77
2021/03/23 03:28:11;;;;;;;6.47;2.95;;;0.80;2201.60;;;;;;5061362;28;20025;-77
2021/03/23 03:30:37;;;;;;;;;;;0.90;2201.60;;;;;;5044034;28;20031;-77
2021/03/23 03:33:06;;;;;;;6.65;2.85;;;25.60;2201.60;;;;;;5060167;28;19905;-76
2021/03/23 03:35:42;;;;;;;11.93;3.22;;;0.80;2201.60;;;;;;5060294;28;20443;-77
2021/03/23 03:38:09;;;;;;;9.00;2.97;;;0.70;2201.60;;;;;;5064768;28;20052;-79
2021/03/23 03:40:44;;;;;;;11.88;3.80;;;0.60;2201.60;;;;;;5062274;28;20029;-81
2021/03/23 03:43:11;;;;;;;6.82;3.30;;;0.50;2201.60;;;;;;5062686;28;20084;-83
2021/03/23 03:45:38;;;;;;;9.75;3.58;;;0.50;2201.60;;;;;;5047045;28;20029;-85
2021/03/23 03:48:04;;;;;;;10.43;3.42;;;0.50;2201.60;;;;;;5047714;28;20528;-84
2021/03/23 03:50:30;;;;;;;10.82;3.92;;;0.60;2201.60;;;;;;5058578;28;20495;-77
2021/03/23 03:52:57;;;;;;;;;;;0.80;2201.60;;;;;;5060763;28;20029;-78
2021/03/23 03:55:28;;;;;;;9.70;3.65;;;0.80;2201.60;;;;;;5047941;28;19935;-84
2021/03/23 03:57:54;;;;;;;7.40;3.42;;;0.80;2201.60;;;;;;5041536;28;20037;-83
2021/03/23 04:00:20;;;;;;;;;;;0.80;2201.60;;;;;;5060585;28;20021;-77
2021/03/23 04:02:46;;;;;;;10.35;4.68;;;0.80;2201.60;;;;;;5043593;28;20616;-77
2021/03/23 04:05:19;;;;;;;10.65;3.63;;;0.90;2201.60;;;;;;5044284;28;20032;-80
2021/03/23 04:07:45;;;;;;;10.48;3.50;;;0.80;2201.60;;;;;;5046267;28;20025;-77
2021/03/23 04:10:10;;;;;;;;;;;0.90;2201.60;;;;;;5059397;28;20108;-78
2021/03/23 04:12:36;;;;;;;8.73;3.42;;;0.80;2201.60;;;;;;5043227;28;19909;-78
2021/03/23 04:15:02;;;;;;;;;;;0.80;2201.60;;;;;;5044004;28;20021;-81
2021/03/23 04:17:28;;;;;;;10.88;3.88;;;0.80;2201.60;;;;;;5042511;28;19921;-77
2021/03/23 04:19:53;;;;;;;8.80;3.28;;;0.60;2201.60;;;;;;5060948;28;20028;-78
2021/03/23 04:22:19;;;;;;;;;;;0.50;2201.60;;;;;;5043022;28;20033;-77
2021/03/23 04:24:45;;;;;;;8.23;3.55;;;0.60;2201.60;;;;;;5063173;28;19889;-80
2021/03/23 04:27:10;;;;;;;;;;;0.30;2201.60;;;;;;5061043;28;20484;-81
2021/03/23 04:29:36;;;;;;;8.98;3.85;;;0.80;2201.60;;;;;;5062590;28;20003;-81
2021/03/23 04:32:02;;;;;;;;;;;0.60;2201.60;;;;;;5058241;28;20381;-78
2021/03/23 04:34:27;;;;;;;8.73;3.67;;;0.70;2201.60;;;;;;5062111;28;19912;-78
2021/03/23 04:36:53;;;;;;;10.52;3.83;;;0.60;2201.60;;;;;;5059476;28;20040;-78
2021/03/23 04:39:19;;;;;;;;;;;0.70;2201.60;;;;;;5045599;28;20025;-80
2021/03/23 04:41:44;;;;;;;10.30;3.88;;;0.60;2201.60;;;;;;5041280;28;19911;-77
2021/03/23 04:44:10;;;;;;;10.00;4.28;;;0.70;2201.60;;;;;;5042603;28;20028;-78
2021/03/23 04:46:36;;;;;;;;;;;0.60;2201.60;;;;;;5039501;28;20041;-84
2021/03/23 04:49:02;;;;;;;8.52;4.70;;;0.60;2201.60;;;;;;5041173;28;19904;-77
2021/03/23 04:51:29;;;;;;;;;;;0.40;2201.60;;;;;;5058966;28;20021;-79
2021/03/23 04:54:08;;;;;;;11.10;4.13;;;0.40;2201.60;;;;;;5058965;28;19955;-82
2021/03/23 04:56:39;;;;;;;8.70;4.15;;;0.40;2201.60;;;;;;5041461;28;20044;-83
2021/03/23 04:59:06;;;;;;;13.93;4.72;;;0.60;2201.60;;;;;;5041316;28;20119;-77
2021/03/23 05:01:32;;;;;;;9.15;4.22;;;0.40;2201.60;;;;;;5045348;28;20029;-77
2021/03/23 05:04:01;;;;;;;15.43;5.00;;;0.30;2201.60;;;;;;5040956;28;20044;-82
2021/03/23 05:06:27;;;;;;;12.55;5.00;;;0.50;2201.60;;;;;;5025619;28;20037;-77
2021/03/23 05:08:53;;;;;;;13.18;5.30;;;0.60;2201.60;;;;;;5043291;28;20033;-77
2021/03/23 05:11:20;;;;;;;;;;;0.60;2201.60;;;;;;5060966;28;20534;-83
2021/03/23 05:13:47;;;;;;;9.40;4.70;;;0.80;2201.60;;;;;;5037599;28;19908;-77
2021/03/23 05:16:13;;;;;;;10.35;5.07;;;0.80;2201.60;;;;;;5039776;28;20548;-77
2021/03/23 05:18:39;;;;;;;8.95;4.15;;;0.90;2201.60;;;;;;5054889;28;20032;-82
2021/03/23 05:21:05;;;;;;;;;;;25.60;2201.60;;;;;;5055839;28;20025;-76
2021/03/23 05:23:31;;;;;;;9.10;4.60;;;0.80;2201.60;;;;;;5061562;28;19909;-84
2021/03/23 05:25:57;;;;;;;10.98;4.95;;;0.90;2201.60;;;;;;5042039;28;20032;-78
2021/03/23 05:28:24;;;;;;;;;;;0.90;2201.60;;;;;;5070367;28;20024;-83
2021/03/23 05:30:50;;;;;;;11.32;5.13;;;0.80;2201.60;;;;;;5043427;28;19909;-77
2021/03/23 05:33:16;;;;;;;;;;;25.60;2201.60;;;;;;5042485;28;20526;-77
2021/03/23 05:35:43;;;;;;;9.68;4.40;;;25.60;2201.60;;;;;;5060081;28;19889;-77
2021/03/23 05:38:09;;;;;;;10.68;4.57;;;25.70;2201.60;;;;;;5041335;28;20072;-76
2021/03/23 05:40:45;;;;;;;;;;;25.70;2201.60;;;;;;5041494;28;20467;-77
2021/03/23 05:43:29;;;;;;;10.60;4.57;;;25.80;2201.60;;;;;;5041606;28;19889;-77
2021/03/23 05:46:10;;;;;;;10.23;4.70;;;25.70;2201.60;;;;;;5040347;28;20845;-77
2021/03/23 05:48:40;;;;;;;15.63;4.80;;;25.80;2201.60;;;;;;5042862;28;20036;-84
2021/03/23 05:51:21;;;;;;;10.05;5.38;;;25.90;2201.60;;;;;;5059612;28;20104;-85
2021/03/23 05:54:12;;;;;;;7.97;4.80;;;26.00;2201.60;;;;;;5038858;28;20033;-77
2021/03/23 05:56:39;;;;;;;13.43;5.35;;;26.20;2201.60;;;;;;5044238;28;20048;-77
2021/03/23 05:59:31;;;;;;;13.15;5.35;;;26.30;2201.60;;;;;;5044072;28;20473;-76
2021/03/23 06:02:20;;;;;;;14.95;5.20;;;26.20;2201.60;;;;;;4980533;28;20034;-76
2021/03/23 06:05:04;;;;;;;11.93;5.63;;;26.50;2201.60;;;;;;4983058;28;20031;-76
2021/03/23 06:07:37;;;;;;;10.77;4.88;;;26.50;2176.00;;;;;;4969632;28;20038;-82
2021/03/23 06:10:16;;;;;;;9.80;5.15;;;26.50;2201.60;;;;;;4982119;28;20037;-76
2021/03/23 06:12:53;;;;;;;12.45;4.93;;;26.50;2201.60;;;;;;4968582;28;20075;-83
2021/03/23 06:15:56;;;;;;;12.85;5.38;;;26.50;2201.60;;;;;;4986409;28;20011;-75
2021/03/23 06:18:56;;;;;;;10.35;4.63;;;51.30;2201.60;;;;;;4928066;29;20031;-78
2021/03/23 06:21:51;;;;;;;14.07;5.40;;;51.30;2201.60;;;;;;4872053;29;20042;-85
2021/03/23 06:24:46;;;;;;;10.80;4.75;;;51.60;2176.00;;;;;;4871267;29;20505;-76
2021/03/23 06:27:21;;;;;;;10.18;5.07;;;51.70;2176.00;;;;;;4870844;29;20371;-75
2021/03/23 06:30:02;;;;;;;9.20;4.87;;;51.70;2150.40;;;;;;4851773;29;20054;-76
2021/03/23 06:32:46;;;;;;;10.60;5.32;;;51.60;2176.00;;;;;;4869291;29;20050;-77
2021/03/23 06:35:40;;;;;;;13.23;5.57;;;51.80;2150.40;;;;;;4870255;29;20046;-80
2021/03/23 06:38:40;;;;;;;14.32;5.38;;;51.90;2150.40;;;;;;4874761;29;20569;-81
2021/03/23 06:41:16;;;;;;;10.70;5.47;;;51.90;2150.40;;;;;;4903079;29;20040;-81
2021/03/23 06:43:51;;;;;;;6.32;4.32;;;52.10;2150.40;;;;;;4905141;29;20032;-81
2021/03/23 06:46:18;;;;;;;9.93;5.45;;;76.80;2150.40;;;;;;4905365;29;20117;-76
2021/03/23 06:49:03;;;;;;;16.67;7.82;;;76.90;2124.80;;;;;;4905969;29;20041;-78
2021/03/23 06:51:29;;;;;;;12.23;6.90;;;77.00;2124.80;;;;;;4905964;29;20123;-77
2021/03/23 06:54:31;;;;;;;11.13;5.70;;;77.10;2099.20;;;;;;4911264;29;20027;-80
2021/03/23 06:57:12;;;;;;;9.98;5.20;;;77.20;2073.60;;;;;;4898180;29;20056;-79
2021/03/23 06:59:56;;;;;;;13.43;6.35;;;77.50;2048.00;;;;;;4940469;29;20028;-75
2021/03/23 07:02:30;;;;;;;11.55;5.40;;;77.50;2048.00;;;;;;4937299;29;20087;-78
2021/03/23 07:05:16;;;;;;;12.90;6.10;;;77.50;2048.00;;;;;;4938496;29;20018;-75
2021/03/23 07:08:15;;;;;;;17.77;5.85;;;77.70;2048.00;;;;;;4939755;29;20079;-77
2021/03/23 07:10:44;;;;;;;16.27;7.15;;;77.60;2022.40;;;;;;4924138;29;20127;-76
2021/03/23 07:13:34;;;;;;;15.77;6.55;;;77.70;2048.00;;;;;;4923586;29;20067;-74
2021/03/23 07:16:11;;;;;;;14.82;7.10;;;102.50;1971.20;;;;;;4940366;29;20042;-79
2021/03/23 07:18:50;;;;;;;15.95;8.07;;;102.70;1920.00;;;;;;4941728;29;20183;-76
2021/03/23 07:21:22;;;;;;;14.20;6.93;;;102.90;1920.00;;;;;;4925806;29;20535;-80
2021/03/23 07:24:02;;;;;;;11.55;6.40;;;102.70;1945.60;;;;;;4939013;29;20077;-76
2021/03/23 07:26:34;;;;;;;14.98;7.50;;;102.70;1920.00;;;;;;4941676;29;20141;-78
2021/03/23 07:29:12;;;;;;;13.55;6.40;;;102.90;1945.60;;;;;;4925447;29;20028;-76
2021/03/23 07:31:42;;;;;;;13.75;5.45;;;103.00;1894.40;;;;;;4942149;29;20055;-76
2021/03/23 07:34:45;;;;;;;12.73;6.15;;;102.90;1920.00;;;;;;5009470;28;20033;-75
2021/03/23 07:37:22;;;;;;;13.48;7.38;;;103.10;1920.00;;;;;;5045262;28;20131;-76
2021/03/23 07:40:02;;;;;;;16.98;9.15;;;103.10;1920.00;;;;;;5052377;28;20025;-79
2021/03/23 07:42:42;;;;;;;15.27;7.40;;;128.10;1920.00;;;;;;5033601;28;20397;-77
2021/03/23 07:45:07;;;;;;;13.50;7.53;;;128.20;1894.40;;;;;;5041720;28;20041;-77
2021/03/23 07:47:33;;;;;;;13.98;6.30;;;128.30;1843.20;;;;;;5050209;28;20486;-81
2021/03/23 07:50:04;;;;;;;;;;;128.60;1868.80;;;;;;5039725;28;20583;-78
2021/03/23 07:52:54;;;;;;;15.10;6.95;;;128.60;1817.60;;;;;;5044838;28;19911;-78
2021/03/23 07:55:27;;;;;;;11.85;6.13;;;128.70;1843.20;;;;;;5044901;28;20036;-77
2021/03/23 07:58:16;;;;;;;11.98;6.03;;;128.80;1817.60;;;;;;5017437;28;20065;-79
2021/03/23 08:00:57;;;;;;;11.18;5.88;;;128.80;1766.40;;;;;;4979229;28;20090;-79
2021/03/23 08:03:45;;;;;;;15.52;6.07;;;153.80;1817.60;;;;;;4979665;28;20039;-78
2021/03/23 08:06:24;;;;;;;12.35;5.10;;;153.90;1792.00;;;;;;4979887;28;20014;-77
2021/03/23 08:09:23;;;;;;;11.15;5.30;;;154.00;1740.80;;;;;;4983082;28;20023;-80
2021/03/23 08:12:00;;;;;;;14.43;6.45;;;154.10;1766.40;;;;;;4980391;28;20042;-77
2021/03/23 08:14:47;;;;;;;13.27;6.10;;;153.80;1715.20;;;;;;4983111;28;20408;-78
2021/03/23 08:17:36;;;;;;;7.60;4.38;;;154.00;1715.20;;;;;;4988562;28;20046;-78
2021/03/23 08:20:39;;;;;;;9.68;5.25;;;154.00;1792.00;;;;;;5005472;28;20062;-79
2021/03/23 08:23:13;;;;;;;10.90;5.22;;;154.10;1689.60;;;;;;5003145;28;20046;-78
2021/03/23 08:25:46;;;;;;;11.07;5.07;;;154.00;1664.00;;;;;;4998220;28;20035;-77
2021/03/23 08:28:47;;;;;;;11.35;5.03;;;153.60;1664.00;;;;;;5001152;28;20498;-77
2021/03/23 08:31:35;;;;;;;9.73;4.50;;;153.90;1689.60;;;;;;4986581;28;20019;-76
2021/03/23 08:34:07;;;;;;;9.77;5.18;;;154.10;1689.60;;;;;;4975927;28;20023;-76
2021/03/23 08:37:00;;;;;;;12.55;5.78;;;154.00;1664.00;;;;;;4981884;28;20431;-79
2021/03/23 08:39:42;;;;;;;22.90;8.57;;;154.10;1664.00;;;;;;5036609;28;20052;-77
2021/03/23 08:42:18;;;;;;;10.60;5.50;;;154.30;1689.60;;;;;;5043501;28;20030;-77
2021/03/23 08:44:55;;;;;;;10.63;4.77;;;154.50;1664.00;;;;;;5018990;28;20088;-77
2021/03/23 08:47:25;;;;;;;13.57;5.72;;;154.50;1587.20;;;;;;5030500;28;20609;-78
2021/03/23 08:49:52;;;;;;;12.70;6.22;;;179.20;1612.80;;;;;;5031431;28;20053;-79
2021/03/23 08:52:46;;;;;;;12.27;4.85;;;179.30;1612.80;;;;;;5037026;28;20028;-76
2021/03/23 08:55:24;;;;;;;8.60;4.75;;;179.40;1587.20;;;;;;5039885;28;20021;-84
2021/03/23 08:57:56;;;;;;;10.80;4.97;;;179.50;1587.20;;;;;;5044224;28;20063;-77
2021/03/23 09:00:37;;;;;;;10.15;4.90;;;179.60;1561.60;;;;;;5025395;28;20043;-78
2021/03/23 09:03:36;;;;;;;8.80;4.10;;;179.80;1587.20;;;;;;5024305;28;20039;-77
2021/03/23 09:06:03;;;;;;;11.48;5.00;;;179.90;1433.60;;;;;;5020835;28;20022;-85
2021/03/23 09:08:35;;;;;;;8.95;4.78;;;180.10;1536.00;;;;;;5043587;28;20072;-77
2021/03/23 09:11:10;;;;;;;12.10;5.47;;;204.80;1408.00;;;;;;5032438;28;20033;-78
2021/03/23 09:13:35;;;;;;;12.13;5.07;;;204.90;1382.40;;;;;;5031767;28;20497;-77
2021/03/23 09:16:07;;;;;;;;;;;204.80;1356.80;;;;;;5014619;28;20030;-78
2021/03/23 09:18:36;;;;;;;9.35;4.45;;;204.90;1356.80;;;;;;5031643;28;20277;-77
2021/03/23 09:21:10;;;;;;;7.53;3.35;;;205.10;1382.40;;;;;;5051781;28;20029;-86
2021/03/23 09:23:42;;;;;;;7.55;3.92;;;205.20;1305.60;;;;;;5033976;28;20808;-78
2021/03/23 09:26:48;;;;;;;7.30;3.70;;;205.30;1356.80;;;;;;5034251;28;20025;-77
2021/03/23 09:29:35;;;;;;;9.00;4.13;;;205.40;1356.80;;;;;;5030713;28;20390;-85
2021/03/23 09:32:10;;;;;;;7.32;2.90;;;205.50;1382.40;;;;;;5014451;28;20075;-86
2021/03/23 09:35:08;;;;;;;9.00;3.83;;;205.50;1254.40;;;;;;5034371;28;20036;-86
2021/03/23 09:37:56;;;;;;;7.28;3.72;;;205.40;1254.40;;;;;;4998540;28;20042;-87
2021/03/23 09:40:22;;;;;;;9.82;4.07;;;205.60;1280.00;;;;;;5016186;28;20101;-85
2021/03/23 09:42:51;;;;;;;7.45;3.67;;;230.40;1254.40;;;;;;4998042;28;20080;-78
2021/03/23 09:45:26;;;;;;;11.18;4.18;;;230.40;1254.40;;;;;;4998143;28;20061;-81
2021/03/23 09:48:00;;;;;;;7.93;3.70;;;230.60;1228.80;;;;;;4998633;28;20087;-78
2021/03/23 09:50:53;;;;;;;10.82;4.38;;;230.80;1203.20;;;;;;5013980;28;20038;-76
2021/03/23 09:53:42;;;;;;;7.75;3.97;;;231.00;1254.40;;;;;;4998024;28;20033;-85
2021/03/23 09:56:22;;;;;;;7.93;4.35;;;231.20;1228.80;;;;;;5015301;28;20049;-78
2021/03/23 09:59:00;;;;;;;10.10;4.25;;;231.10;1177.60;;;;;;5035292;28;20092;-77
2021/03/23 10:01:26;;;;;;;9.55;4.57;;;231.30;1203.20;;;;;;5017802;28;20428;-84
2021/03/23 10:03:52;;;;;;;;;;;256.00;1203.20;;;;;;5018919;28;20029;-88
2021/03/23 10:06:27;;;;;;;7.43;4.10;;;256.20;1177.60;;;;;;5018084;28;19905;-81
2021/03/23 10:08:56;;;;;;;6.90;3.95;;;256.20;1126.40;;;;;;5017532;28;20057;-87
2021/03/23 10:11:23;;;;;;;9.95;4.15;;;256.50;1100.80;;;;;;5016658;28;20500;-80
2021/03/23 10:14:11;;;;;;;7.03;3.83;;;256.30;1152.00;;;;;;5051287;28;20028;-79
2021/03/23 10:16:40;;;;;;;9.27;4.50;;;256.30;1152.00;;;;;;5023490;28;20045;-80
2021/03/23 10:19:13;;;;;;;9.20;4.72;;;256.70;1100.80;;;;;;5035331;28;20560;-82
2021/03/23 10:21:45;;;;;;;8.18;4.18;;;256.80;1126.40;;;;;;5017166;28;20072;-78
2021/03/23 10:24:19;;;;;;;8.88;4.47;;;256.90;1075.20;;;;;;5033862;28;20029;-83
2021/03/23 10:26:47;;;;;;;8.95;3.70;;;281.80;1075.20;;;;;;5016938;28;20026;-84
2021/03/23 10:29:20;;;;;;;8.35;3.50;;;282.00;1024.00;;;;;;5034975;28;20116;-79
2021/03/23 10:31:52;;;;;;;5.28;3.22;;;281.90;998.40;;;;;;5033893;28;20025;-80
2021/03/23 10:34:23;;;;;;;8.27;3.75;;;282.20;998.40;;;;;;5034625;28;20025;-77
2021/03/23 10:36:54;;;;;;;9.15;4.38;;;282.20;998.40;;;;;;5016709;28;20481;-77
2021/03/23 10:39:27;;;;;;;6.57;4.03;;;282.40;1024.00;;;;;;5016265;28;20044;-85
2021/03/23 10:41:53;;;;;;;8.35;3.95;;;282.50;1024.00;;;;;;5034287;28;20065;-79
2021/03/23 10:44:26;;;;;;;8.13;3.45;;;282.50;1024.00;;;;;;5033071;28;20041;-76
2021/03/23 10:46:53;;;;;;;8.77;3.58;;;282.50;998.40;;;;;;5016546;28;20032;-75
2021/03/23 10:49:26;;;;;;;7.40;4.03;;;307.60;1024.00;;;;;;5033575;28;20026;-82
2021/03/23 10:51:55;;;;;;;9.45;3.50;;;307.60;998.40;;;;;;5034260;28;20057;-77
2021/03/23 10:54:29;;;;;;;9.85;4.13;;;307.60;998.40;;;;;;5037944;28;20018;-76
2021/03/23 10:56:59;;;;;;;7.65;4.35;;;307.30;947.20;;;;;;5042292;28;20041;-76
2021/03/23 10:59:33;;;;;;;6.43;3.22;;;307.30;1024.00;;;;;;5041870;28;20025;-75
2021/03/23 11:02:08;;;;;;;9.20;4.07;;;307.40;998.40;;;;;;5039750;28;20477;-75
2021/03/23 11:04:37;;;;;;;6.45;4.00;;;307.90;972.80;;;;;;5039421;28;20017;-77
2021/03/23 11:07:33;;;;;;;9.40;3.30;;;333.10;998.40;;;;;;5041760;28;20052;-78
2021/03/23 11:10:00;;;;;;;10.57;4.30;;;333.20;1024.00;;;;;;4962450;28;20055;-78
2021/03/23 11:12:28;;;;;;;8.93;3.70;;;308.10;947.20;;;;;;4949214;28;20027;-75
2021/03/23 11:14:55;;;;;;;9.10;4.82;;;332.90;921.60;;;;;;4947901;28;20068;-76
2021/03/23 11:17:23;;;;;;;7.57;3.30;;;332.90;921.60;;;;;;4942170;29;20388;-77
2021/03/23 11:19:52;;;;;;;5.35;3.13;;;333.20;947.20;;;;;;4953229;28;20032;-78
2021/03/23 11:22:34;;;;;;;6.15;2.67;;;333.40;921.60;;;;;;4921066;29;20039;-78
2021/03/23 11:25:00;;;;;;;8.23;3.13;;;333.60;870.40;;;;;;4933562;29;20028;-78
2021/03/23 11:27:27;;;;;;;9.27;4.32;;;358.50;844.80;;;;;;4917565;29;20044;-78
2021/03/23 11:29:58;;;;;;;10.02;4.40;;;358.40;896.00;;;;;;4952794;28;20031;-82
2021/03/23 11:32:25;;;;;;;14.07;4.38;;;333.40;896.00;;;;;;4937944;29;20035;-81
2021/03/23 11:34:51;;;;;;;5.65;3.00;;;333.60;896.00;;;;;;4937622;29;20045;-83
2021/03/23 11:37:18;;;;;;;8.98;3.10;;;333.40;870.40;;;;;;4937974;29;20054;-79
2021/03/23 11:39:43;;;;;;;8.05;2.92;;;358.40;921.60;;;;;;4938238;29;20546;-83
2021/03/23 11:42:27;;;;;;;8.43;4.03;;;358.40;870.40;;;;;;4952928;29;20031;-77
2021/03/23 11:44:55;;;;;;;7.10;3.35;;;358.40;844.80;;;;;;4936783;29;20038;-82
2021/03/23 11:47:40;;;;;;;7.18;3.42;;;358.70;896.00;;;;;;5008763;28;20046;-79
2021/03/23 11:50:18;;;;;;;11.60;5.10;;;358.80;844.80;;;;;;5031223;28;20361;-77
2021/03/23 11:52:44;;;;;;;10.05;5.28;;;358.50;870.40;;;;;;5035259;28;20385;-75
2021/03/23 11:55:15;;;;;;;8.20;4.90;;;358.60;896.00;;;;;;5053045;28;20037;-84
2021/03/23 11:57:41;;;;;;;9.23;4.57;;;358.70;896.00;;;;;;5052757;28;20049;-77
2021/03/23 12:00:09;;;;;;;6.53;3.22;;;358.70;921.60;;;;;;5053046;28;20033;-79
2021/03/23 12:02:35;;;;;;;6.18;3.85;;;358.90;844.80;;;;;;5035103;28;20029;-82
2021/03/23 12:05:02;;;;;;;8.88;4.70;;;358.80;896.00;;;;;;5034838;28;20036;-83
2021/03/23 12:07:33;;;;;;;9.40;4.72;;;359.20;896.00;;;;;;5034408;28;20028;-75
2021/03/23 12:10:25;;;;;;;6.40;3.85;;;358.80;896.00;;;;;;5040700;28;20028;-76
2021/03/23 12:13:06;;;;;;;6.78;3.53;;;333.60;870.40;;;;;;4955637;28;20042;-76
2021/03/23 12:15:36;;;;;;;9.63;3.60;;;358.40;870.40;;;;;;4952865;29;20110;-77
2021/03/23 12:18:10;;;;;;;9.05;4.43;;;333.20;972.80;;;;;;4952315;28;20047;-85
2021/03/23 12:20:37;;;;;;;6.75;3.33;;;333.40;921.60;;;;;;4971280;28;20026;-79
2021/03/23 12:23:04;;;;;;;7.10;3.45;;;333.50;921.60;;;;;;4955555;28;20118;-85
2021/03/23 12:25:31;;;;;;;9.57;3.47;;;333.50;844.80;;;;;;4955814;28;20026;-81
2021/03/23 12:27:57;;;;;;;7.65;3.33;;;333.50;870.40;;;;;;4971537;28;20066;-82
2021/03/23 12:30:24;;;;;;;8.15;3.25;;;308.10;870.40;;;;;;4955759;28;20134;-82
2021/03/23 12:32:55;;;;;;;6.15;3.30;;;308.10;896.00;;;;;;4969099;28;20034;-82
2021/03/23 12:35:24;;;;;;;9.80;3.67;;;308.10;896.00;;;;;;4955185;28;20037;-82
2021/03/23 12:37:54;;;;;;;19.88;7.93;;;308.10;921.60;;;;;;4968779;28;20043;-81
2021/03/23 12:40:22;;;;;;;23.10;11.93;;;333.20;921.60;;;;;;4971721;28;20158;-83
2021/03/23 12:42:48;;;;;;;8.20;4.53;;;333.20;947.20;;;;;;4956154;28;20039;-78
2021/03/23 12:45:32;;;;;;;6.97;3.88;;;333.20;896.00;;;;;;4955915;28;20030;-82
2021/03/23 12:47:58;;;;;;;11.40;3.85;;;332.90;896.00;;;;;;4956006;28;20034;-83
2021/03/23 12:50:25;;;;;;;9.77;4.35;;;308.00;896.00;;;;;;5002558;28;20038;-87
2021/03/23 12:52:54;;;;;;;8.23;4.40;;;307.70;947.20;;;;;;5013360;28;20111;-85
2021/03/23 12:55:26;;;;;;;10.13;4.85;;;307.80;921.60;;;;;;5017544;28;20034;-87
2021/03/23 12:57:55;;;;;;;7.88;4.72;;;307.80;947.20;;;;;;5013550;28;20493;-83